createdAt,value
2022-10-23T00:00:53.221Z,100877.19
2022-10-23T00:01:55.521Z,100871.94
2022-10-23T00:02:59.693Z,100875.03
2022-10-23T00:04:12.779Z,100883.09
2022-10-23T00:05:14.991Z,100884.16
2022-10-23T00:06:17.960Z,100879.66
2022-10-23T00:07:20.441Z,100875.00
2022-10-23T00:08:22.728Z,100878.41
2022-10-23T00:09:32.643Z,100882.00
2022-10-23T00:10:35.568Z,100886.59
2022-10-23T00:11:38.099Z,100888.16
2022-10-23T00:12:40.646Z,100895.91
2022-10-23T00:13:43.564Z,100886.00
2022-10-23T00:14:45.814Z,100882.13
2022-10-23T00:15:48.222Z,100883.34
2022-10-23T00:16:51.126Z,100889.88
2022-10-23T00:17:53.708Z,100892.66
2022-10-23T00:18:56.155Z,100891.38
2022-10-23T00:19:58.817Z,100897.13
2022-10-23T00:21:01.622Z,100889.38
2022-10-23T00:22:03.917Z,100884.91
2022-10-23T00:23:06.200Z,100893.44
2022-10-23T00:25:12.150Z,100891.09
2022-10-23T00:26:15.992Z,100893.91
2022-10-23T00:27:18.326Z,100901.34
2022-10-23T00:28:20.677Z,100913.59
2022-10-23T00:29:22.944Z,100909.75
2022-10-23T00:30:25.499Z,100916.25
2022-10-23T00:31:27.680Z,100915.91
2022-10-23T00:32:29.981Z,100919.97
2022-10-23T00:33:36.478Z,100927.13
2022-10-23T00:34:38.782Z,100924.50
2022-10-23T00:35:42.322Z,100929.75
2022-10-23T00:36:44.527Z,100928.69
2022-10-23T00:37:46.842Z,100930.06
2022-10-23T00:38:50.306Z,100930.03
2022-10-23T00:39:53.057Z,100923.81
2022-10-23T00:40:55.274Z,100928.69
2022-10-23T00:41:57.707Z,100930.06
2022-10-23T00:43:00.083Z,100930.84
2022-10-23T00:44:02.443Z,100930.69
2022-10-23T00:45:16.797Z,100925.41
2022-10-23T00:46:18.961Z,100928.81
2022-10-23T00:47:21.917Z,100922.75
2022-10-23T00:48:26.255Z,100928.22
2022-10-23T00:49:28.717Z,100929.75
2022-10-23T00:50:33.442Z,100936.63
2022-10-23T00:51:46.924Z,100939.25
2022-10-23T00:52:51.775Z,100940.31
2022-10-23T00:54:22.979Z,100926.22
2022-10-23T00:55:24.637Z,100932.25
2022-10-23T00:56:27.322Z,100924.63
2022-10-23T00:57:29.775Z,100919.53
2022-10-23T00:58:32.843Z,100920.94
2022-10-23T00:59:35.064Z,100923.09
2022-10-23T01:00:46.373Z,100918.94
2022-10-23T01:01:49.166Z,100914.25
2022-10-23T01:02:52.713Z,100917.09
2022-10-23T01:03:56.067Z,100915.22
2022-10-23T01:04:58.394Z,100920.81
2022-10-23T01:06:09.700Z,100921.25
2022-10-23T01:07:15.277Z,100929.06
2022-10-23T01:08:29.010Z,100922.69
2022-10-23T01:09:35.950Z,100918.66
2022-10-23T01:10:54.713Z,100918.00
2022-10-23T01:12:18.663Z,100918.31
2022-10-23T01:13:26.605Z,100926.22
2022-10-23T01:14:35.936Z,100925.63
2022-10-23T01:15:41.222Z,100929.63
2022-10-23T01:17:02.408Z,100938.31
2022-10-23T01:18:29.936Z,100934.44
2022-10-23T01:19:50.547Z,100936.19
2022-10-23T01:20:55.928Z,100935.09
2022-10-23T01:22:13.044Z,100930.75
2022-10-23T01:23:51.432Z,100932.91
2022-10-23T01:24:56.553Z,100937.59
2022-10-23T01:26:39.810Z,100935.25
2022-10-23T01:27:56.330Z,100944.72
2022-10-23T01:29:16.900Z,100945.97
2022-10-23T01:30:19.250Z,100945.66
2022-10-23T01:31:33.058Z,100949.22
2022-10-23T01:32:48.431Z,100942.84
2022-10-23T01:34:03.856Z,100932.47
2022-10-23T01:35:19.024Z,100930.91
2022-10-23T01:36:29.505Z,100930.59
2022-10-23T01:37:44.874Z,100934.47
2022-10-23T01:38:58.570Z,100932.94
2022-10-23T01:40:05.393Z,100927.31
2022-10-23T01:41:14.806Z,100925.47
2022-10-23T01:42:21.206Z,100930.47
2022-10-23T01:43:35.446Z,100933.38
2022-10-23T01:44:50.891Z,100932.00
2022-10-23T01:45:59.431Z,100935.72
2022-10-23T01:47:06.356Z,100945.94
2022-10-23T01:48:18.267Z,100950.75
2022-10-23T01:49:23.195Z,100952.59
2022-10-23T01:50:30.478Z,100944.09
2022-10-23T01:51:39.192Z,100946.25
2022-10-23T01:52:43.593Z,100950.13
2022-10-23T01:53:48.543Z,100943.63
2022-10-23T01:54:53.822Z,100945.50
2022-10-23T01:55:56.928Z,100944.69
2022-10-23T01:57:02.050Z,100942.53
2022-10-23T01:58:08.669Z,100947.94
2022-10-23T01:59:21.595Z,100952.78
2022-10-23T02:00:24.012Z,100954.63
2022-10-23T02:01:30.240Z,100956.19
2022-10-23T02:02:34.442Z,100951.03
2022-10-23T02:03:40.891Z,100953.53
2022-10-23T02:05:04.585Z,100957.56
2022-10-23T02:06:07.105Z,100962.53
2022-10-23T02:07:09.360Z,100955.97
2022-10-23T02:08:12.024Z,100956.75
2022-10-23T02:09:15.193Z,100961.69
2022-10-23T02:10:17.944Z,100963.56
2022-10-23T02:11:21.954Z,100970.69
2022-10-23T02:12:40.044Z,100967.25
2022-10-23T02:14:16.891Z,100978.25
2022-10-23T02:15:31.135Z,100982.88
2022-10-23T02:16:52.799Z,100988.72
2022-10-23T02:18:24.559Z,100989.06
2022-10-23T02:19:43.956Z,100993.41
2022-10-23T02:20:51.759Z,101000.72
2022-10-23T02:22:07.580Z,101001.31
2022-10-23T02:23:33.345Z,100998.44
2022-10-23T02:24:43.857Z,101001.56
2022-10-23T02:26:10.983Z,101003.13
2022-10-23T02:27:19.798Z,101013.16
2022-10-23T02:28:34.275Z,101010.22
2022-10-23T02:29:51.896Z,101016.72
2022-10-23T02:30:59.366Z,101001.97
2022-10-23T02:32:02.288Z,101001.78
2022-10-23T02:33:05.969Z,101001.50
2022-10-23T02:34:08.293Z,100998.03
2022-10-23T02:35:11.462Z,100998.63
2022-10-23T02:36:14.856Z,100998.03
2022-10-23T02:37:17.585Z,101002.63
2022-10-23T02:38:36.752Z,100995.16
2022-10-23T02:39:39.773Z,101009.53
2022-10-23T02:40:47.766Z,101003.16
2022-10-23T02:41:56.136Z,101006.56
2022-10-23T02:43:08.333Z,101003.50
2022-10-23T02:44:10.487Z,101009.81
2022-10-23T02:45:23.202Z,101002.00
2022-10-23T02:46:30.344Z,100999.63
2022-10-23T02:47:43.139Z,101012.16
2022-10-23T02:48:57.884Z,101021.13
2022-10-23T02:50:42.660Z,101025.91
2022-10-23T02:52:21.136Z,101031.06
2022-10-23T02:53:49.411Z,101025.59
2022-10-23T02:55:24.070Z,101031.19
2022-10-23T02:56:41.319Z,101028.84
2022-10-23T02:57:49.879Z,101031.19
2022-10-23T02:58:58.345Z,101034.09
2022-10-23T03:00:07.869Z,101028.34
2022-10-23T03:01:15.892Z,101027.09
2022-10-23T03:02:26.144Z,101030.63
2022-10-23T03:03:35.469Z,101031.38
2022-10-23T03:04:40.238Z,101036.88
2022-10-23T03:05:45.214Z,101034.00
2022-10-23T03:06:51.017Z,101028.84
2022-10-23T03:07:54.125Z,101033.22
2022-10-23T03:09:05.052Z,101037.75
2022-10-23T03:10:09.111Z,101041.19
2022-10-23T03:11:11.924Z,101041.66
2022-10-23T03:12:14.379Z,101049.69
2022-10-23T03:13:16.713Z,101042.59
2022-10-23T03:14:19.799Z,101044.94
2022-10-23T03:15:22.544Z,101045.69
2022-10-23T03:16:26.667Z,101046.50
2022-10-23T03:17:30.291Z,101058.28
2022-10-23T03:18:35.374Z,101056.53
2022-10-23T03:19:38.365Z,101062.28
2022-10-23T03:20:40.631Z,101065.38
2022-10-23T03:21:42.979Z,101070.66
2022-10-23T03:22:45.967Z,101080.13
2022-10-23T03:23:48.793Z,101080.28
2022-10-23T03:24:54.606Z,101082.03
2022-10-23T03:25:57.073Z,101087.00
2022-10-23T03:27:13.848Z,101087.78
2022-10-23T03:28:16.139Z,101089.34
2022-10-23T03:29:18.925Z,101093.06
2022-10-23T03:30:22.102Z,101088.25
2022-10-23T03:31:29.105Z,101091.19
2022-10-23T03:32:34.079Z,101095.97
2022-10-23T03:33:36.350Z,101088.38
2022-10-23T03:34:44.447Z,101088.06
2022-10-23T03:36:56.491Z,101088.88
2022-10-23T03:37:58.676Z,101090.91
2022-10-23T03:39:02.138Z,101082.38
2022-10-23T03:40:04.907Z,101088.91
2022-10-23T03:41:10.344Z,101098.53
2022-10-23T03:42:12.724Z,101097.94
2022-10-23T03:43:15.303Z,101096.56
2022-10-23T03:44:18.188Z,101104.84
2022-10-23T03:45:21.005Z,101093.22
2022-10-23T03:46:24.477Z,101097.69
2022-10-23T03:47:32.406Z,101098.38
2022-10-23T03:48:39.370Z,101093.91
2022-10-23T03:49:41.923Z,101094.66
2022-10-23T03:50:44.140Z,101100.16
2022-10-23T03:51:52.157Z,101104.03
2022-10-23T03:52:56.532Z,101102.97
2022-10-23T03:53:58.795Z,101103.31
2022-10-23T03:55:01.162Z,101097.56
2022-10-23T03:56:03.518Z,101097.25
2022-10-23T03:57:05.707Z,101103.63
2022-10-23T03:58:08.034Z,101103.31
2022-10-23T03:59:10.347Z,101100.06
2022-10-23T04:00:13.193Z,101101.78
2022-10-23T04:01:22.923Z,101103.66
2022-10-23T04:02:25.347Z,101107.69
2022-10-23T04:03:27.914Z,101103.25
2022-10-23T04:04:30.572Z,101099.91
2022-10-23T04:05:33.394Z,101104.44
2022-10-23T04:06:36.127Z,101101.78
2022-10-23T04:07:39.625Z,101107.34
2022-10-23T04:08:44.152Z,101113.44
2022-10-23T04:09:51.498Z,101108.91
2022-10-23T04:10:55.183Z,101117.59
2022-10-23T04:12:12.016Z,101112.81
2022-10-23T04:13:14.349Z,101114.19
2022-10-23T04:14:17.716Z,101106.41
2022-10-23T04:15:20.233Z,101109.53
2022-10-23T04:16:22.714Z,101109.53
2022-10-23T04:17:25.119Z,101106.41
2022-10-23T04:18:30.555Z,101106.25
2022-10-23T04:19:32.860Z,101111.38
2022-10-23T04:20:35.273Z,101114.00
2022-10-23T04:21:38.042Z,101107.75
2022-10-23T04:22:40.497Z,101106.31
2022-10-23T04:23:43.349Z,101119.03
2022-10-23T04:24:51.612Z,101116.38
2022-10-23T04:25:57.625Z,101118.53
2022-10-23T04:27:01.544Z,101116.72
2022-10-23T04:28:05.263Z,101114.34
2022-10-23T04:29:12.226Z,101110.56
2022-10-23T04:30:14.645Z,101117.69
2022-10-23T04:31:17.025Z,101118.28
2022-10-23T04:32:19.344Z,101115.03
2022-10-23T04:33:21.650Z,101122.94
2022-10-23T04:34:26.333Z,101117.69
2022-10-23T04:35:29.642Z,101119.19
2022-10-23T04:36:31.902Z,101122.03
2022-10-23T04:37:40.954Z,101130.38
2022-10-23T04:38:43.750Z,101131.47
2022-10-23T04:39:46.083Z,101124.78
2022-10-23T04:40:49.494Z,101123.94
2022-10-23T04:41:55.974Z,101126.25
2022-10-23T04:43:00.500Z,101133.38
2022-10-23T04:44:07.944Z,101124.13
2022-10-23T04:45:13.538Z,101122.72
2022-10-23T04:46:18.115Z,101123.94
2022-10-23T04:47:22.853Z,101122.00
2022-10-23T04:48:35.174Z,101125.59
2022-10-23T04:49:55.603Z,101117.22
2022-10-23T04:51:17.889Z,101126.72
2022-10-23T04:52:34.343Z,101113.72
2022-10-23T04:53:59.565Z,101119.59
2022-10-23T04:55:19.477Z,101111.72
2022-10-23T04:56:39.027Z,101121.91
2022-10-23T04:57:44.412Z,101122.41
2022-10-23T04:58:47.531Z,101122.41
2022-10-23T04:59:50.022Z,101124.22
2022-10-23T05:00:53.900Z,101123.59
2022-10-23T05:01:59.941Z,101122.75
2022-10-23T05:03:02.249Z,101120.19
2022-10-23T05:04:11.000Z,101120.63
2022-10-23T05:05:33.924Z,101117.00
2022-10-23T05:07:03.579Z,101129.97
2022-10-23T05:08:23.684Z,101133.00
2022-10-23T05:10:01.153Z,101130.56
2022-10-23T05:11:12.575Z,101123.50
2022-10-23T05:12:20.192Z,101130.44
2022-10-23T05:13:23.977Z,101134.03
2022-10-23T05:14:26.225Z,101136.84
2022-10-23T05:15:28.647Z,101135.13
2022-10-23T05:16:43.286Z,101141.16
2022-10-23T05:17:49.433Z,101139.19
2022-10-23T05:18:51.912Z,101141.34
2022-10-23T05:19:58.109Z,101147.88
2022-10-23T05:21:17.722Z,101150.50
2022-10-23T05:22:27.105Z,101148.16
2022-10-23T05:23:32.273Z,101148.16
2022-10-23T05:24:37.236Z,101153.13
2022-10-23T05:25:40.523Z,101157.81
2022-10-23T05:26:53.137Z,101155.38
2022-10-23T05:27:56.097Z,101160.34
2022-10-23T05:28:58.443Z,101161.09
2022-10-23T05:30:00.706Z,101160.00
2022-10-23T05:31:06.571Z,101165.50
2022-10-23T05:32:13.701Z,101159.09
2022-10-23T05:33:16.564Z,101171.75
2022-10-23T05:34:23.493Z,101158.78
2022-10-23T05:35:25.877Z,101168.47
2022-10-23T05:36:28.756Z,101162.16
2022-10-23T05:37:32.935Z,101171.94
2022-10-23T05:38:42.934Z,101168.94
2022-10-23T05:39:49.431Z,101188.06
2022-10-23T05:40:53.401Z,101178.44
2022-10-23T05:41:57.569Z,101181.19
2022-10-23T05:43:00.907Z,101181.63
2022-10-23T05:44:32.109Z,101177.44
2022-10-23T05:45:54.638Z,101176.06
2022-10-23T05:46:59.814Z,101175.13
2022-10-23T05:48:34.566Z,101182.31
2022-10-23T05:49:55.918Z,101186.75
2022-10-23T05:51:23.647Z,101183.84
2022-10-23T05:52:39.955Z,101187.06
2022-10-23T05:54:11.407Z,101186.38
2022-10-23T05:55:23.625Z,101188.44
2022-10-23T05:56:43.093Z,101192.03
2022-10-23T05:57:54.976Z,101189.28
2022-10-23T05:59:14.704Z,101194.13
2022-10-23T06:00:36.590Z,101193.47
2022-10-23T06:01:59.059Z,101194.31
2022-10-23T06:03:16.383Z,101198.41
2022-10-23T06:04:19.612Z,101201.16
2022-10-23T06:05:52.009Z,101200.06
2022-10-23T06:06:57.287Z,101198.91
2022-10-23T06:08:00.248Z,101200.34
2022-10-23T06:09:04.039Z,101206.41
2022-10-23T06:10:10.180Z,101209.72
2022-10-23T06:11:16.599Z,101208.75
2022-10-23T06:12:26.880Z,101214.84
2022-10-23T06:13:29.237Z,101214.50
2022-10-23T06:14:31.396Z,101215.44
2022-10-23T06:15:33.826Z,101219.09
2022-10-23T06:16:41.048Z,101219.69
2022-10-23T06:17:43.993Z,101217.47
2022-10-23T06:18:47.711Z,101226.09
2022-10-23T06:19:51.476Z,101222.97
2022-10-23T06:20:53.977Z,101228.69
2022-10-23T06:22:01.546Z,101224.44
2022-10-23T06:23:21.198Z,101224.44
2022-10-23T06:24:52.611Z,101223.25
2022-10-23T06:25:59.477Z,101222.66
2022-10-23T06:27:11.421Z,101219.53
2022-10-23T06:28:19.820Z,101216.72
2022-10-23T06:29:23.364Z,101217.47
2022-10-23T06:30:26.481Z,101220.69
2022-10-23T06:31:28.875Z,101224.34
2022-10-23T06:32:33.072Z,101224.22
2022-10-23T06:33:45.543Z,101227.28
2022-10-23T06:34:47.989Z,101222.06
2022-10-23T06:35:50.215Z,101228.59
2022-10-23T06:36:52.722Z,101226.84
2022-10-23T06:38:10.635Z,101231.16
2022-10-23T06:39:18.464Z,101230.84
2022-10-23T06:40:55.797Z,101237.84
2022-10-23T06:42:10.470Z,101232.84
2022-10-23T06:43:27.906Z,101241.88
2022-10-23T06:44:57.004Z,101242.63
2022-10-23T06:46:19.291Z,101240.28
2022-10-23T06:47:41.704Z,101248.28
2022-10-23T06:49:20.364Z,101241.50
2022-10-23T06:50:25.403Z,101245.56
2022-10-23T06:51:29.916Z,101243.69
2022-10-23T06:52:46.670Z,101247.47
2022-10-23T06:53:52.337Z,101253.22
2022-10-23T06:55:14.693Z,101251.19
2022-10-23T06:56:17.133Z,101247.19
2022-10-23T06:57:22.572Z,101254.38
2022-10-23T06:58:26.080Z,101256.44
2022-10-23T06:59:38.982Z,101252.25
2022-10-23T07:00:42.573Z,101258.75
2022-10-23T07:01:45.081Z,101263.25
2022-10-23T07:02:48.369Z,101267.44
2022-10-23T07:03:50.783Z,101268.00
2022-10-23T07:04:57.933Z,101264.09
2022-10-23T07:06:06.344Z,101268.13
2022-10-23T07:07:08.800Z,101262.75
2022-10-23T07:08:19.749Z,101265.38
2022-10-23T07:09:27.178Z,101274.91
2022-10-23T07:10:29.327Z,101270.09
2022-10-23T07:11:33.417Z,101280.84
2022-10-23T07:12:36.538Z,101278.56
2022-10-23T07:13:59.048Z,101284.09
2022-10-23T07:15:01.276Z,101285.75
2022-10-23T07:16:11.138Z,101279.56
2022-10-23T07:17:13.611Z,101280.25
2022-10-23T07:18:17.079Z,101285.63
2022-10-23T07:19:57.530Z,101275.91
2022-10-23T07:21:00.134Z,101286.00
2022-10-23T07:22:03.940Z,101286.22
2022-10-23T07:23:41.447Z,101279.91
2022-10-23T07:24:46.194Z,101287.66
2022-10-23T07:26:11.694Z,101286.81
2022-10-23T07:27:14.008Z,101279.00
2022-10-23T07:28:16.625Z,101287.63
2022-10-23T07:29:19.114Z,101293.91
2022-10-23T07:30:22.840Z,101284.03
2022-10-23T07:31:29.576Z,101290.56
2022-10-23T07:32:50.635Z,101279.00
2022-10-23T07:34:11.532Z,101274.91
2022-10-23T07:36:39.885Z,101268.84
2022-10-23T07:37:42.416Z,101262.75
2022-10-23T07:38:45.623Z,101268.72
2022-10-23T07:39:48.131Z,101268.47
2022-10-23T07:40:50.396Z,101268.69
2022-10-23T07:41:53.776Z,101268.75
2022-10-23T07:42:56.558Z,101267.22
2022-10-23T07:43:59.399Z,101272.41
2022-10-23T07:45:01.866Z,101273.50
2022-10-23T07:46:05.207Z,101274.69
2022-10-23T07:47:11.848Z,101281.56
2022-10-23T07:48:17.731Z,101271.06
2022-10-23T07:49:33.683Z,101283.09
2022-10-23T07:50:38.296Z,101274.69
2022-10-23T07:51:40.719Z,101281.41
2022-10-23T07:52:43.756Z,101284.81
2022-10-23T07:53:48.580Z,101284.72
2022-10-23T07:55:18.706Z,101282.28
2022-10-23T07:56:30.098Z,101280.34
2022-10-23T07:57:59.134Z,101285.38
2022-10-23T07:59:27.868Z,101286.09
2022-10-23T08:00:30.769Z,101289.81
2022-10-23T08:01:44.094Z,101288.63
2022-10-23T08:02:46.729Z,101289.44
2022-10-23T08:03:49.113Z,101298.91
2022-10-23T08:04:51.575Z,101282.88
2022-10-23T08:06:10.256Z,101293.78
2022-10-23T08:07:12.702Z,101280.25
2022-10-23T08:08:18.409Z,101290.75
2022-10-23T08:09:23.268Z,101283.09
2022-10-23T08:10:25.645Z,101280.84
2022-10-23T08:11:31.122Z,101279.22
2022-10-23T08:12:33.585Z,101289.28
2022-10-23T08:13:36.438Z,101289.09
2022-10-23T08:14:41.263Z,101291.72
2022-10-23T08:15:45.279Z,101288.66
2022-10-23T08:17:10.035Z,101299.03
2022-10-23T08:18:49.649Z,101301.69
2022-10-23T08:19:53.380Z,101293.41
2022-10-23T08:21:01.801Z,101301.44
2022-10-23T08:22:04.100Z,101303.38
2022-10-23T08:23:07.123Z,101306.97
2022-10-23T08:24:13.994Z,101303.88
2022-10-23T08:25:21.910Z,101302.59
2022-10-23T08:26:31.320Z,101302.34
2022-10-23T08:27:34.064Z,101299.66
2022-10-23T08:28:36.729Z,101303.31
2022-10-23T08:29:39.813Z,101304.59
2022-10-23T08:30:42.189Z,101299.00
2022-10-23T08:31:44.731Z,101306.63
2022-10-23T08:32:57.638Z,101303.03
2022-10-23T08:34:01.486Z,101310.88
2022-10-23T08:35:03.846Z,101304.94
2022-10-23T08:36:17.946Z,101309.34
2022-10-23T08:37:20.159Z,101318.28
2022-10-23T08:38:22.373Z,101311.28
2022-10-23T08:39:24.589Z,101316.50
2022-10-23T08:40:46.428Z,101315.06
2022-10-23T08:42:25.937Z,101320.16
2022-10-23T08:43:38.694Z,101313.94
2022-10-23T08:45:06.011Z,101308.88
2022-10-23T08:46:18.161Z,101316.81
2022-10-23T08:47:46.752Z,101316.25
2022-10-23T08:48:56.624Z,101312.28
2022-10-23T08:51:44.237Z,101311.94
2022-10-23T08:53:12.810Z,101320.03
2022-10-23T08:54:20.712Z,101317.72
2022-10-23T08:55:42.938Z,101314.84
2022-10-23T08:56:52.456Z,101313.25
2022-10-23T08:58:06.254Z,101321.06
2022-10-23T08:59:20.130Z,101315.06
2022-10-23T09:00:22.553Z,101312.66
2022-10-23T09:01:47.148Z,101318.28
2022-10-23T09:02:52.502Z,101316.94
2022-10-23T09:03:54.746Z,101311.28
2022-10-23T09:04:58.876Z,101318.72
2022-10-23T09:06:09.064Z,101312.28
2022-10-23T09:07:43.144Z,101322.91
2022-10-23T09:08:51.037Z,101322.66
2022-10-23T09:10:14.368Z,101317.63
2022-10-23T09:12:07.166Z,101312.00
2022-10-23T09:13:34.965Z,101313.34
2022-10-23T09:14:55.945Z,101317.13
2022-10-23T09:16:26.250Z,101318.72
2022-10-23T09:17:29.696Z,101319.69
2022-10-23T09:18:32.423Z,101327.59
2022-10-23T09:19:34.973Z,101331.28
2022-10-23T09:20:37.616Z,101328.56
2022-10-23T09:21:39.965Z,101328.16
2022-10-23T09:22:43.691Z,101329.28
2022-10-23T09:23:45.978Z,101335.34
2022-10-23T09:24:52.983Z,101333.56
2022-10-23T09:25:57.246Z,101338.34
2022-10-23T09:27:00.840Z,101331.75
2022-10-23T09:28:05.544Z,101340.78
2022-10-23T09:29:27.723Z,101331.78
2022-10-23T09:30:32.864Z,101333.41
2022-10-23T09:31:35.109Z,101335.88
2022-10-23T09:32:38.450Z,101343.84
2022-10-23T09:33:41.188Z,101335.38
2022-10-23T09:34:55.226Z,101336.06
2022-10-23T09:36:03.031Z,101335.69
2022-10-23T09:37:22.532Z,101346.53
2022-10-23T09:38:33.343Z,101341.75
2022-10-23T09:39:37.008Z,101339.03
2022-10-23T09:40:42.041Z,101338.38
2022-10-23T09:41:44.529Z,101347.91
2022-10-23T09:43:11.854Z,101339.81
2022-10-23T09:44:23.090Z,101339.66
2022-10-23T09:45:29.451Z,101347.50
2022-10-23T09:46:46.002Z,101340.69
2022-10-23T09:47:48.305Z,101345.72
2022-10-23T09:48:59.030Z,101344.16
2022-10-23T09:50:03.463Z,101347.06
2022-10-23T09:51:26.109Z,101352.00
2022-10-23T09:52:39.212Z,101340.97
2022-10-23T09:54:01.768Z,101342.97
2022-10-23T09:55:20.812Z,101338.81
2022-10-23T09:56:35.409Z,101342.22
2022-10-23T09:57:43.144Z,101346.47
2022-10-23T09:58:56.684Z,101344.13
2022-10-23T10:00:20.647Z,101350.69
2022-10-23T10:01:36.478Z,101358.31
2022-10-23T10:03:05.262Z,101360.53
2022-10-23T10:04:31.129Z,101357.09
2022-10-23T10:05:35.023Z,101351.53
2022-10-23T10:06:43.310Z,101353.72
2022-10-23T10:07:55.947Z,101341.84
2022-10-23T10:09:15.675Z,101340.44
2022-10-23T10:10:17.890Z,101333.03
2022-10-23T10:11:37.568Z,101332.41
2022-10-23T10:12:51.114Z,101333.53
2022-10-23T10:14:01.956Z,101331.19
2022-10-23T10:15:25.575Z,101337.41
2022-10-23T10:16:54.227Z,101340.06
2022-10-23T10:18:03.906Z,101343.47
2022-10-23T10:19:21.609Z,101342.19
2022-10-23T10:20:49.850Z,101340.31
2022-10-23T10:22:16.758Z,101332.63
2022-10-23T10:23:50.546Z,101339.28
2022-10-23T10:25:20.285Z,101332.50
2022-10-23T10:26:35.251Z,101326.41
2022-10-23T10:27:54.640Z,101327.97
2022-10-23T10:29:20.032Z,101325.28
2022-10-23T10:30:23.922Z,101319.13
2022-10-23T10:31:53.081Z,101322.28
2022-10-23T10:33:01.332Z,101326.09
2022-10-23T10:34:35.870Z,101321.81
2022-10-23T10:35:50.393Z,101329.56
2022-10-23T10:36:56.825Z,101327.59
2022-10-23T10:38:33.926Z,101332.59
2022-10-23T10:39:57.977Z,101327.19
2022-10-23T10:41:18.803Z,101319.69
2022-10-23T10:42:32.503Z,101317.59
2022-10-23T10:43:40.870Z,101325.19
2022-10-23T10:45:18.126Z,101329.19
2022-10-23T10:46:27.869Z,101327.88
2022-10-23T10:48:03.561Z,101317.16
2022-10-23T10:49:22.079Z,101317.41
2022-10-23T10:50:51.330Z,101316.72
2022-10-23T10:52:22.558Z,101318.06
2022-10-23T10:54:04.009Z,101322.16
2022-10-23T10:55:19.283Z,101313.88
2022-10-23T10:56:27.032Z,101305.44
2022-10-23T10:57:34.661Z,101306.81
2022-10-23T10:58:48.431Z,101303.44
2022-10-23T10:59:54.492Z,101308.66
2022-10-23T11:00:59.569Z,101307.66
2022-10-23T11:02:28.765Z,101308.91
2022-10-23T11:03:40.279Z,101309.97
2022-10-23T11:05:06.023Z,101309.34
2022-10-23T11:06:15.542Z,101301.22
2022-10-23T11:07:22.828Z,101298.25
2022-10-23T11:08:44.464Z,101302.00
2022-10-23T11:10:00.523Z,101295.75
2022-10-23T11:11:22.620Z,101294.47
2022-10-23T11:12:28.036Z,101293.16
2022-10-23T11:13:37.668Z,101289.13
2022-10-23T11:14:42.879Z,101291.41
2022-10-23T11:15:45.853Z,101283.56
2022-10-23T11:17:10.441Z,101288.56
2022-10-23T11:18:19.086Z,101287.06
2022-10-23T11:19:34.909Z,101277.88
2022-10-23T11:20:51.043Z,101279.50
2022-10-23T11:21:56.650Z,101284.94
2022-10-23T11:23:18.866Z,101279.09
2022-10-23T11:24:26.882Z,101285.09
2022-10-23T11:25:47.680Z,101272.56
2022-10-23T11:27:08.819Z,101266.81
2022-10-23T11:28:38.700Z,101272.97
2022-10-23T11:30:15.276Z,101273.09
2022-10-23T11:32:06.421Z,101266.25
2022-10-23T11:33:34.373Z,101267.44
2022-10-23T11:34:52.103Z,101261.53
2022-10-23T11:36:03.071Z,101268.47
2022-10-23T11:37:05.557Z,101260.66
2022-10-23T11:38:13.778Z,101272.25
2022-10-23T11:39:18.714Z,101266.25
2022-10-23T11:40:25.777Z,101263.72
2022-10-23T11:41:34.164Z,101259.19
2022-10-23T11:42:39.940Z,101265.03
2022-10-23T11:44:01.723Z,101263.50
2022-10-23T11:45:05.006Z,101258.91
2022-10-23T11:46:23.558Z,101255.63
2022-10-23T11:47:37.979Z,101257.91
2022-10-23T11:48:44.326Z,101257.56
2022-10-23T11:49:46.540Z,101258.94
2022-10-23T11:50:55.655Z,101253.56
2022-10-23T11:52:04.301Z,101261.69
2022-10-23T11:53:23.407Z,101263.66
2022-10-23T11:54:27.460Z,101259.31
2022-10-23T11:55:32.356Z,101260.78
2022-10-23T11:56:35.146Z,101251.34
2022-10-23T11:57:37.728Z,101249.59
2022-10-23T11:58:53.477Z,101249.00
2022-10-23T11:59:57.724Z,101248.78
2022-10-23T12:01:05.965Z,101245.69
2022-10-23T12:02:32.578Z,101240.09
2022-10-23T12:03:59.409Z,101244.88
2022-10-23T12:05:09.086Z,101246.72
2022-10-23T12:06:23.038Z,101247.72
2022-10-23T12:07:33.206Z,101237.94
2022-10-23T12:08:40.095Z,101247.88
2022-10-23T12:09:52.344Z,101256.97
2022-10-23T12:10:55.614Z,101250.19
2022-10-23T12:12:02.907Z,101240.53
2022-10-23T12:13:06.776Z,101247.81
2022-10-23T12:14:28.739Z,101253.75
2022-10-23T12:15:33.164Z,101252.72
2022-10-23T12:16:36.907Z,101253.78
2022-10-23T12:17:40.602Z,101247.19
2022-10-23T12:18:48.065Z,101246.03
2022-10-23T12:19:53.925Z,101240.69
2022-10-23T12:20:59.160Z,101246.38
2022-10-23T12:22:02.458Z,101236.75
2022-10-23T12:23:40.443Z,101241.28
2022-10-23T12:24:59.829Z,101237.84
2022-10-23T12:26:13.032Z,101238.63
2022-10-23T12:27:57.341Z,101227.41
2022-10-23T12:29:26.157Z,101225.84
2022-10-23T12:30:47.819Z,101221.38
2022-10-23T12:32:09.091Z,101228.47
2022-10-23T12:33:37.746Z,101218.72
2022-10-23T12:34:46.529Z,101230.53
2022-10-23T12:36:39.053Z,101229.84
2022-10-23T12:38:15.447Z,101220.69
2022-10-23T12:39:28.704Z,101230.47
2022-10-23T12:40:31.255Z,101222.84
2022-10-23T12:41:35.332Z,101222.34
2022-10-23T12:42:38.328Z,101219.56
2022-10-23T12:43:44.196Z,101223.28
2022-10-23T12:44:46.715Z,101217.50
2022-10-23T12:45:50.552Z,101222.66
2022-10-23T12:47:04.370Z,101215.91
2022-10-23T12:48:07.382Z,101211.25
2022-10-23T12:49:18.903Z,101211.97
2022-10-23T12:50:24.509Z,101216.56
2022-10-23T12:51:35.405Z,101216.28
2022-10-23T12:52:39.902Z,101211.97
2022-10-23T12:53:42.741Z,101212.63
2022-10-23T12:54:45.858Z,101213.19
2022-10-23T12:57:28.485Z,101210.44
2022-10-23T12:58:33.613Z,101212.16
2022-10-23T12:59:41.961Z,101213.97
2022-10-23T13:00:53.764Z,101213.84
2022-10-23T13:01:57.522Z,101208.91
2022-10-23T13:03:04.412Z,101206.25
2022-10-23T13:04:27.946Z,101207.63
2022-10-23T13:05:32.417Z,101203.34
2022-10-23T13:06:35.248Z,101216.19
2022-10-23T13:07:44.882Z,101214.97
2022-10-23T13:08:50.257Z,101216.78
2022-10-23T13:10:19.191Z,101215.44
2022-10-23T13:11:37.424Z,101215.88
2022-10-23T13:12:50.872Z,101199.44
2022-10-23T13:13:53.779Z,101215.19
2022-10-23T13:15:00.836Z,101207.53
2022-10-23T13:16:15.498Z,101215.50
2022-10-23T13:17:19.075Z,101214.66
2022-10-23T13:18:21.783Z,101212.84
2022-10-23T13:19:26.201Z,101206.22
2022-10-23T13:20:38.362Z,101210.97
2022-10-23T13:21:46.716Z,101210.31
2022-10-23T13:23:01.232Z,101202.78
2022-10-23T13:24:04.185Z,101209.34
2022-10-23T13:25:27.791Z,101204.19
2022-10-23T13:26:47.753Z,101209.34
2022-10-23T13:27:51.432Z,101204.81
2022-10-23T13:28:54.672Z,101206.53
2022-10-23T13:29:58.481Z,101204.38